createdAt,value
2023-02-03T00:00:09.551Z,12.37
2023-02-03T00:02:37.715Z,12.13
2023-02-03T00:05:07.886Z,13.20
2023-02-03T00:07:36.387Z,12.27
2023-02-03T00:10:04.685Z,13.13
2023-02-03T00:12:32.878Z,14.93
2023-02-03T00:15:01.029Z,14.87
2023-02-03T00:17:29.379Z,12.93
2023-02-03T00:19:57.516Z,12.40
2023-02-03T00:22:27.128Z,12.30
2023-02-03T00:24:55.272Z,9.77
2023-02-03T00:27:23.452Z,8.10
2023-02-03T00:29:51.662Z,8.47
2023-02-03T00:32:20.299Z,7.80
2023-02-03T00:34:48.512Z,9.20
2023-02-03T00:37:16.855Z,8.33
2023-02-03T00:39:46.361Z,10.53
2023-02-03T00:42:14.483Z,9.37
2023-02-03T00:44:42.710Z,10.20
2023-02-03T00:47:10.931Z,10.50
2023-02-03T00:49:39.052Z,8.13
2023-02-03T00:52:07.394Z,7.87
2023-02-03T00:54:35.585Z,8.07
2023-02-03T00:57:05.285Z,7.37
2023-02-03T00:59:33.490Z,6.57
2023-02-03T01:02:01.701Z,6.37
2023-02-03T01:04:29.882Z,6.13
2023-02-03T01:06:59.842Z,5.40
2023-02-03T01:09:28.211Z,5.67
2023-02-03T01:11:56.632Z,5.00
2023-02-03T01:14:26.190Z,4.27
2023-02-03T01:16:54.460Z,4.43
2023-02-03T01:19:22.664Z,3.33
2023-02-03T01:21:50.909Z,3.00
2023-02-03T01:24:19.321Z,3.50
2023-02-03T01:26:47.598Z,2.93
2023-02-03T01:29:15.894Z,3.00
2023-02-03T01:31:45.630Z,2.77
2023-02-03T01:34:16.262Z,2.47
2023-02-03T01:36:44.567Z,3.10
2023-02-03T01:39:13.105Z,2.33
2023-02-03T01:41:41.611Z,3.13
2023-02-03T01:44:28.671Z,2.77
2023-02-03T01:46:58.331Z,2.40
2023-02-03T01:49:28.887Z,2.20
2023-02-03T01:51:57.339Z,2.37
2023-02-03T01:54:27.806Z,1.80
2023-02-03T01:56:57.029Z,1.67
2023-02-03T01:59:25.807Z,1.90
2023-02-03T02:01:54.322Z,1.93
2023-02-03T02:04:24.193Z,1.60
2023-02-03T02:06:52.570Z,1.70
2023-02-03T02:09:20.715Z,2.00
2023-02-03T02:11:48.849Z,2.57
2023-02-03T02:14:17.120Z,2.17
2023-02-03T02:16:47.331Z,1.80
2023-02-03T02:19:30.394Z,2.27
2023-02-03T02:22:05.054Z,2.03
2023-02-03T02:24:48.139Z,1.90
2023-02-03T02:27:25.493Z,2.23
2023-02-03T02:30:19.298Z,1.93
2023-02-03T02:32:57.381Z,3.07
2023-02-03T02:35:31.803Z,1.70
2023-02-03T02:38:03.632Z,1.90
2023-02-03T02:40:35.054Z,1.80
2023-02-03T02:43:06.822Z,1.70
2023-02-03T02:45:40.708Z,2.10
2023-02-03T02:48:12.182Z,1.87
2023-02-03T02:50:43.090Z,1.93
2023-02-03T02:53:11.908Z,2.33
2023-02-03T02:55:41.561Z,1.67
2023-02-03T02:58:11.601Z,1.77
2023-02-03T03:00:41.740Z,1.80
2023-02-03T03:03:15.720Z,1.50
2023-02-03T03:05:45.111Z,2.20
2023-02-03T03:08:14.142Z,1.67
2023-02-03T03:10:42.892Z,2.07
2023-02-03T03:13:14.654Z,1.90
2023-02-03T03:15:43.118Z,1.70
2023-02-03T03:18:14.834Z,2.50
2023-02-03T03:20:44.978Z,2.03
2023-02-03T03:23:15.803Z,2.10
2023-02-03T03:25:45.994Z,1.90
2023-02-03T03:28:17.699Z,2.13
2023-02-03T03:30:46.002Z,1.97
2023-02-03T03:33:14.352Z,2.13
2023-02-03T03:35:47.458Z,2.50
2023-02-03T03:38:18.507Z,2.27
2023-02-03T03:40:49.882Z,2.40
2023-02-03T03:43:19.444Z,2.60
2023-02-03T03:45:50.757Z,2.17
2023-02-03T03:48:21.344Z,2.30
2023-02-03T03:50:52.216Z,2.10
2023-02-03T03:53:21.557Z,2.57
2023-02-03T03:55:51.240Z,2.10
2023-02-03T03:58:23.004Z,2.07
2023-02-03T04:00:51.977Z,2.10
2023-02-03T04:03:23.433Z,2.57
2023-02-03T04:05:53.020Z,2.20
2023-02-03T04:08:21.190Z,2.43
2023-02-03T04:10:49.329Z,2.60
2023-02-03T04:13:20.150Z,2.83
2023-02-03T04:15:48.447Z,2.73
2023-02-03T04:18:17.227Z,2.40
2023-02-03T04:20:45.401Z,2.37
2023-02-03T04:23:14.862Z,2.90
2023-02-03T04:25:43.043Z,2.47
2023-02-03T04:28:11.382Z,2.40
2023-02-03T04:30:39.679Z,1.93
2023-02-03T04:33:07.812Z,2.07
2023-02-03T04:35:36.048Z,2.17
2023-02-03T04:38:04.275Z,1.80
2023-02-03T04:40:35.109Z,2.50
2023-02-03T04:43:07.223Z,2.33
2023-02-03T04:45:35.479Z,1.70
2023-02-03T04:48:04.565Z,1.97
2023-02-03T04:50:32.922Z,1.60
2023-02-03T04:53:01.266Z,2.50
2023-02-03T04:55:29.624Z,1.97
2023-02-03T04:57:59.221Z,2.03
2023-02-03T05:00:27.724Z,2.70
2023-02-03T05:02:56.321Z,2.90
2023-02-03T05:05:24.572Z,2.90
2023-02-03T05:07:52.756Z,3.63
2023-02-03T05:10:21.021Z,3.13
2023-02-03T05:12:49.231Z,3.23
2023-02-03T05:15:18.958Z,3.17
2023-02-03T05:17:47.187Z,3.57
2023-02-03T05:20:15.327Z,2.83
2023-02-03T05:22:43.512Z,3.30
2023-02-03T05:25:11.930Z,4.00
2023-02-03T05:27:40.227Z,3.43
2023-02-03T05:30:08.763Z,3.70
2023-02-03T05:32:38.246Z,3.20
2023-02-03T05:35:06.645Z,3.93
2023-02-03T05:37:34.772Z,3.97
2023-02-03T05:40:16.861Z,5.70
2023-02-03T05:42:48.251Z,5.20
2023-02-03T05:45:16.455Z,5.73
2023-02-03T05:47:45.998Z,6.40
2023-02-03T05:50:14.201Z,7.10
2023-02-03T05:52:42.387Z,6.90
2023-02-03T05:55:10.768Z,6.60
2023-02-03T05:57:38.949Z,6.63
2023-02-03T06:00:08.275Z,6.97
2023-02-03T06:02:36.418Z,5.93
2023-02-03T06:05:06.101Z,5.77
2023-02-03T06:07:34.295Z,5.93
2023-02-03T06:10:02.478Z,6.23
2023-02-03T06:12:30.637Z,6.53
2023-02-03T06:14:58.773Z,8.33
2023-02-03T06:17:26.963Z,10.13
2023-02-03T06:19:55.087Z,7.97
2023-02-03T06:22:24.636Z,9.33
2023-02-03T06:24:53.671Z,8.90
2023-02-03T06:27:21.827Z,8.13
2023-02-03T06:29:50.459Z,9.10
2023-02-03T06:32:18.771Z,8.80
2023-02-03T06:34:47.271Z,11.53
2023-02-03T06:37:15.512Z,14.30
2023-02-03T06:39:45.050Z,14.17
2023-02-03T06:42:13.268Z,16.20
2023-02-03T06:44:41.403Z,9.70
2023-02-03T06:47:09.570Z,11.07
2023-02-03T06:49:37.731Z,16.27
2023-02-03T06:52:06.045Z,15.80
2023-02-03T06:54:34.225Z,17.67
2023-02-03T06:57:04.090Z,21.07
2023-02-03T06:59:32.271Z,22.67
2023-02-03T07:02:00.412Z,20.73
2023-02-03T07:04:30.134Z,16.93
2023-02-03T07:06:58.458Z,20.10
2023-02-03T07:09:26.722Z,16.10
2023-02-03T07:11:54.845Z,14.10
2023-02-03T07:14:24.464Z,14.40
2023-02-03T07:16:54.318Z,15.40
2023-02-03T07:19:22.546Z,15.60
2023-02-03T07:21:50.708Z,15.77
2023-02-03T07:24:18.958Z,14.13
2023-02-03T07:26:47.094Z,13.63
2023-02-03T07:29:15.270Z,20.37
2023-02-03T07:31:44.898Z,21.30
2023-02-03T07:34:13.317Z,19.47
2023-02-03T07:36:41.583Z,21.37
2023-02-03T07:39:09.778Z,20.63
2023-02-03T07:41:37.976Z,21.43
2023-02-03T07:44:06.797Z,22.53
2023-02-03T07:46:35.056Z,17.70
2023-02-03T07:49:05.801Z,20.07
2023-02-03T07:51:34.011Z,18.43
2023-02-03T07:54:02.151Z,23.63
2023-02-03T07:56:32.642Z,21.67
2023-02-03T07:59:01.115Z,21.53
2023-02-03T08:01:31.326Z,21.43
2023-02-03T08:04:02.046Z,22.23
2023-02-03T08:06:31.536Z,19.63
2023-02-03T08:08:59.682Z,17.33
2023-02-03T08:11:27.835Z,16.80
2023-02-03T08:13:55.984Z,15.53
2023-02-03T08:16:24.226Z,18.33
2023-02-03T08:18:52.402Z,19.73
2023-02-03T08:21:20.698Z,19.57
2023-02-03T08:23:50.244Z,20.57
2023-02-03T08:26:18.371Z,16.77
2023-02-03T08:28:49.780Z,17.67
2023-02-03T08:31:18.169Z,17.40
2023-02-03T08:33:46.408Z,23.17
2023-02-03T08:36:14.631Z,21.40
2023-02-03T08:38:42.883Z,20.93
2023-02-03T08:41:13.260Z,26.93
2023-02-03T08:43:41.420Z,24.00
2023-02-03T08:46:11.311Z,31.40
2023-02-03T08:48:39.531Z,30.17
2023-02-03T08:51:11.605Z,25.87
2023-02-03T08:53:39.953Z,26.70
2023-02-03T08:56:08.712Z,31.50
2023-02-03T08:58:38.638Z,30.70
2023-02-03T09:01:10.644Z,26.13
2023-02-03T09:03:39.057Z,29.33
2023-02-03T09:06:08.420Z,24.03
2023-02-03T09:08:36.590Z,26.17
2023-02-03T09:11:04.829Z,24.10
2023-02-03T09:13:34.518Z,26.87
2023-02-03T09:16:04.136Z,45.90
2023-02-03T09:18:32.298Z,44.27
2023-02-03T09:21:03.831Z,30.37
2023-02-03T09:23:32.294Z,31.33
2023-02-03T09:26:03.483Z,36.97
2023-02-03T09:28:31.664Z,34.50
2023-02-03T09:31:01.658Z,34.57
2023-02-03T09:33:31.402Z,30.20
2023-02-03T09:36:00.205Z,27.87
2023-02-03T09:38:28.949Z,26.37
2023-02-03T09:41:10.534Z,25.63
2023-02-03T09:43:42.188Z,19.30
2023-02-03T09:46:14.412Z,17.67
2023-02-03T09:48:45.605Z,14.80
2023-02-03T09:51:19.079Z,13.93
2023-02-03T09:53:50.066Z,13.23
2023-02-03T09:56:21.750Z,11.73
2023-02-03T09:58:49.952Z,10.30
2023-02-03T10:01:20.135Z,10.53
2023-02-03T10:03:53.454Z,9.03
2023-02-03T10:06:25.218Z,8.40
2023-02-03T10:09:07.371Z,9.97
2023-02-03T10:11:40.601Z,10.77
2023-02-03T10:14:14.523Z,9.50
2023-02-03T10:16:53.520Z,8.13
2023-02-03T10:19:24.799Z,5.67
2023-02-03T10:21:55.303Z,6.53
2023-02-03T10:24:27.064Z,5.67
2023-02-03T10:26:55.929Z,5.73
2023-02-03T10:29:28.372Z,5.03
2023-02-03T10:31:58.890Z,5.07
2023-02-03T10:34:28.589Z,4.87
2023-02-03T10:36:57.919Z,4.67
2023-02-03T10:39:34.204Z,4.97
2023-02-03T10:42:02.873Z,4.77
2023-02-03T10:44:33.878Z,4.90
2023-02-03T10:47:02.099Z,4.90
2023-02-03T10:49:31.709Z,5.33
2023-02-03T10:52:04.801Z,4.03
2023-02-03T10:54:33.717Z,4.20
2023-02-03T10:57:06.474Z,4.27
2023-02-03T10:59:36.693Z,5.17
2023-02-03T11:02:09.677Z,6.03
2023-02-03T11:04:39.240Z,4.90
2023-02-03T11:07:08.394Z,5.07
2023-02-03T11:09:38.262Z,5.53
2023-02-03T11:12:13.576Z,4.93
2023-02-03T11:14:44.042Z,5.73
2023-02-03T11:17:17.148Z,5.63
2023-02-03T11:19:47.691Z,6.77
2023-02-03T11:22:28.123Z,5.43
2023-02-03T11:24:56.429Z,5.37
2023-02-03T11:27:25.300Z,5.20
2023-02-03T11:29:54.800Z,4.83
2023-02-03T11:32:25.428Z,4.77
2023-02-03T11:34:58.990Z,3.53
2023-02-03T11:37:32.904Z,4.60
2023-02-03T11:40:14.882Z,5.17
2023-02-03T11:42:44.117Z,4.97
2023-02-03T11:45:15.921Z,3.93
2023-02-03T11:47:46.561Z,4.37
2023-02-03T11:50:21.360Z,4.33
2023-02-03T11:52:57.991Z,4.37
2023-02-03T11:55:33.068Z,5.17
2023-02-03T11:58:09.755Z,4.63
2023-02-03T12:00:43.480Z,4.77
2023-02-03T12:03:31.391Z,4.87
2023-02-03T12:06:03.519Z,3.93
2023-02-03T12:08:39.114Z,4.33
2023-02-03T12:11:12.589Z,3.53
2023-02-03T12:13:59.296Z,4.63
2023-02-03T12:16:45.176Z,5.00
2023-02-03T12:19:16.080Z,5.17
2023-02-03T12:21:47.401Z,5.33
2023-02-03T12:24:30.405Z,4.70
2023-02-03T12:27:04.957Z,5.03
2023-02-03T12:29:34.932Z,4.23
2023-02-03T12:32:07.331Z,4.50
2023-02-03T12:34:38.204Z,3.50
2023-02-03T12:37:09.673Z,4.50
2023-02-03T12:39:40.638Z,4.13
2023-02-03T12:42:14.453Z,4.63
2023-02-03T12:44:45.536Z,4.83
2023-02-03T12:47:15.517Z,4.07
2023-02-03T12:49:45.565Z,5.03
2023-02-03T12:52:20.246Z,4.90
2023-02-03T12:54:51.577Z,5.80
2023-02-03T12:57:22.352Z,5.47
2023-02-03T12:59:56.457Z,5.33
2023-02-03T13:02:27.920Z,5.93
2023-02-03T13:04:58.222Z,5.87
2023-02-03T13:07:30.510Z,5.20
2023-02-03T13:10:01.460Z,4.67
2023-02-03T13:12:31.699Z,5.10
2023-02-03T13:15:02.412Z,4.43
2023-02-03T13:17:32.290Z,4.20
2023-02-03T13:20:02.053Z,6.60
2023-02-03T13:22:31.987Z,5.57
2023-02-03T13:25:03.648Z,5.93
2023-02-03T13:27:42.528Z,5.43
2023-02-03T13:30:16.504Z,5.70
2023-02-03T13:32:55.341Z,6.53
2023-02-03T13:35:34.353Z,5.97
2023-02-03T13:38:13.276Z,6.87
2023-02-03T13:40:45.438Z,6.90
2023-02-03T13:43:16.258Z,6.50
2023-02-03T13:45:50.329Z,7.67
2023-02-03T13:48:20.429Z,6.03
2023-02-03T13:50:49.533Z,7.23
2023-02-03T13:53:21.176Z,6.43
2023-02-03T13:55:55.079Z,6.73
2023-02-03T13:58:25.513Z,7.00
2023-02-03T14:01:02.270Z,8.37
2023-02-03T14:03:44.136Z,8.37
2023-02-03T14:06:33.158Z,8.40
2023-02-03T14:09:02.681Z,11.20
2023-02-03T14:11:52.198Z,10.93
2023-02-03T14:14:38.805Z,9.07
2023-02-03T14:17:10.713Z,10.60
2023-02-03T14:19:59.733Z,9.03
2023-02-03T14:22:28.083Z,7.47
2023-02-03T14:24:58.797Z,6.47
2023-02-03T14:27:28.208Z,6.90
2023-02-03T14:30:07.069Z,6.70
2023-02-03T14:32:50.383Z,6.43
2023-02-03T14:35:19.613Z,6.20
2023-02-03T14:37:53.513Z,6.23
2023-02-03T14:40:26.953Z,7.90
2023-02-03T14:43:28.157Z,8.57
2023-02-03T14:46:15.093Z,8.50
2023-02-03T14:48:48.073Z,10.27
2023-02-03T14:51:22.836Z,9.17
2023-02-03T14:53:58.930Z,11.00
2023-02-03T14:56:54.330Z,13.13
2023-02-03T14:59:25.873Z,13.37
2023-02-03T15:02:10.603Z,15.37
2023-02-03T15:04:38.856Z,15.87
2023-02-03T15:07:07.712Z,15.00
2023-02-03T15:09:38.554Z,16.00
2023-02-03T15:12:18.237Z,13.17
2023-02-03T15:14:46.415Z,16.07
2023-02-03T15:17:22.016Z,18.57
2023-02-03T15:19:50.223Z,16.53
2023-02-03T15:22:19.917Z,17.90
2023-02-03T15:24:48.660Z,19.87
2023-02-03T15:27:28.016Z,19.30
2023-02-03T15:29:58.803Z,19.17
2023-02-03T15:32:29.219Z,16.90
2023-02-03T15:34:59.106Z,20.03
2023-02-03T15:37:30.300Z,22.37
2023-02-03T15:40:01.829Z,22.23
2023-02-03T15:42:35.639Z,20.37
2023-02-03T15:45:06.000Z,19.40
2023-02-03T15:47:35.367Z,17.17
2023-02-03T15:50:09.876Z,20.27
2023-02-03T15:52:41.010Z,22.37
2023-02-03T15:55:17.601Z,23.40
2023-02-03T15:57:49.878Z,27.87
2023-02-03T16:00:35.256Z,33.30
2023-02-03T16:03:04.754Z,35.07
2023-02-03T16:05:33.959Z,40.80
2023-02-03T16:08:17.000Z,45.17
2023-02-03T16:10:45.186Z,36.50
2023-02-03T16:13:22.947Z,35.20
2023-02-03T16:16:02.300Z,37.70
2023-02-03T16:18:30.584Z,37.93
2023-02-03T16:20:58.819Z,42.37
2023-02-03T16:23:29.767Z,34.50
2023-02-03T16:26:04.660Z,39.07
2023-02-03T16:28:51.817Z,33.80
2023-02-03T16:31:40.173Z,26.23
2023-02-03T16:34:32.282Z,26.70
2023-02-03T16:37:18.606Z,23.30
2023-02-03T16:40:04.689Z,24.70
2023-02-03T16:42:56.212Z,27.37
2023-02-03T16:45:43.841Z,26.50
2023-02-03T16:48:29.759Z,24.40
2023-02-03T16:50:59.598Z,26.13
2023-02-03T16:53:28.824Z,23.10
2023-02-03T16:55:57.661Z,31.67
2023-02-03T16:58:26.059Z,30.27
2023-02-03T17:00:56.663Z,30.37
2023-02-03T17:03:25.709Z,21.20
2023-02-03T17:05:53.919Z,21.00
2023-02-03T17:08:23.267Z,22.47
2023-02-03T17:10:51.804Z,22.50
2023-02-03T17:13:20.969Z,24.07
2023-02-03T17:15:50.027Z,33.13
2023-02-03T17:18:19.693Z,31.20
2023-02-03T17:20:48.260Z,29.37
2023-02-03T17:23:17.003Z,27.13
2023-02-03T17:25:45.948Z,22.60
2023-02-03T17:28:14.565Z,21.53
2023-02-03T17:30:42.872Z,19.10
2023-02-03T17:33:12.738Z,17.33
2023-02-03T17:35:43.310Z,18.27
2023-02-03T17:38:11.550Z,12.07
2023-02-03T17:54:38.500Z,11.47
2023-02-03T17:57:06.701Z,14.43
2023-02-03T17:59:37.650Z,14.83
2023-02-03T18:02:06.114Z,13.90
2023-02-03T18:04:34.968Z,18.13
2023-02-03T18:07:04.606Z,16.73
2023-02-03T18:09:32.750Z,18.60
2023-02-03T18:12:00.931Z,20.70
2023-02-03T18:14:29.244Z,27.23
2023-02-03T18:16:57.416Z,25.67
2023-02-03T18:19:25.606Z,22.03
2023-02-03T18:21:53.780Z,21.00
2023-02-03T18:24:27.864Z,20.63
2023-02-03T18:26:56.221Z,20.40
2023-02-03T18:29:26.125Z,23.07
2023-02-03T18:31:54.752Z,28.80
2023-02-03T18:34:23.790Z,27.20
2023-02-03T18:36:52.056Z,24.80
2023-02-03T18:39:20.249Z,20.97
2023-02-03T18:41:49.863Z,18.83
2023-02-03T18:44:18.093Z,16.63
2023-02-03T18:46:46.262Z,14.27
2023-02-03T18:49:14.463Z,14.53
2023-02-03T18:51:42.622Z,10.70
2023-02-03T18:54:11.214Z,13.10
2023-02-03T18:56:39.401Z,9.60
2023-02-03T18:59:10.014Z,9.00
2023-02-03T19:01:39.659Z,7.53
2023-02-03T19:04:07.895Z,8.10
2023-02-03T19:06:36.680Z,5.60
2023-02-03T19:09:06.328Z,5.60
2023-02-03T19:11:34.985Z,5.10
2023-02-03T19:14:03.169Z,4.37
2023-02-03T19:16:32.750Z,4.50
2023-02-03T19:19:00.959Z,4.07
2023-02-03T19:21:29.112Z,4.70
2023-02-03T19:23:57.253Z,3.77
2023-02-03T19:26:26.476Z,3.70
2023-02-03T19:28:55.810Z,3.43
2023-02-03T19:31:24.178Z,3.50
2023-02-03T19:33:53.737Z,4.20
2023-02-03T19:36:21.918Z,3.50
2023-02-03T19:38:50.096Z,3.90
2023-02-03T19:41:18.339Z,3.53
2023-02-03T19:43:47.761Z,3.87
2023-02-03T19:46:16.077Z,4.40
2023-02-03T19:48:44.268Z,3.33
2023-02-03T19:51:13.858Z,4.37
2023-02-03T19:53:42.173Z,4.20
2023-02-03T19:56:10.407Z,4.13
2023-02-03T19:58:38.829Z,3.30
2023-02-03T20:01:07.211Z,3.77
2023-02-03T20:03:35.435Z,3.43
2023-02-03T20:06:03.957Z,3.63
2023-02-03T20:08:33.501Z,4.10
2023-02-03T20:11:02.515Z,4.37
2023-02-03T20:13:31.130Z,4.60
2023-02-03T20:15:59.572Z,4.33
2023-02-03T20:18:28.165Z,4.53
2023-02-03T20:20:57.009Z,4.87
2023-02-03T20:23:25.645Z,5.87
2023-02-03T20:25:55.607Z,4.90
2023-02-03T20:28:25.071Z,7.43
2023-02-03T20:30:53.556Z,6.10
2023-02-03T20:33:22.157Z,3.83
2023-02-03T20:35:50.348Z,4.53
2023-02-03T20:38:18.600Z,8.43
2023-02-03T20:40:46.964Z,4.50
2023-02-03T20:43:17.627Z,10.27
2023-02-03T20:45:46.624Z,6.27
2023-02-03T20:48:15.237Z,5.27
2023-02-03T20:50:46.602Z,14.97
2023-02-03T20:53:15.713Z,6.53
2023-02-03T20:55:43.946Z,14.33
2023-02-03T20:58:16.357Z,6.57
2023-02-03T21:00:48.368Z,22.30
2023-02-03T21:03:35.005Z,5.23
2023-02-03T21:06:03.397Z,5.13
2023-02-03T21:08:31.877Z,4.57
2023-02-03T21:11:00.124Z,4.53
2023-02-03T21:13:29.319Z,4.97
2023-02-03T21:16:02.546Z,4.53
2023-02-03T21:18:34.541Z,6.03
2023-02-03T21:21:03.188Z,6.20
2023-02-03T21:23:37.393Z,6.87
2023-02-03T21:26:15.067Z,7.47
2023-02-03T21:28:43.277Z,7.37
2023-02-03T21:31:20.059Z,7.73
2023-02-03T21:33:48.298Z,11.00
2023-02-03T21:36:17.576Z,13.13
2023-02-03T21:38:46.506Z,12.87
2023-02-03T21:41:17.582Z,14.60
2023-02-03T21:43:45.947Z,15.53
2023-02-03T21:46:19.035Z,17.23
2023-02-03T21:48:48.358Z,17.40
2023-02-03T21:51:17.387Z,24.57
2023-02-03T21:53:47.873Z,17.03
2023-02-03T21:56:18.265Z,17.13
2023-02-03T21:58:48.473Z,18.80
2023-02-03T22:01:19.794Z,19.53
2023-02-03T22:03:51.310Z,23.27
2023-02-03T22:06:29.602Z,25.30
2023-02-03T22:08:58.479Z,22.27
2023-02-03T22:11:27.625Z,22.23
2023-02-03T22:13:56.139Z,18.10
2023-02-03T22:16:24.757Z,24.33
2023-02-03T22:18:54.324Z,23.50
2023-02-03T22:21:23.034Z,25.43
2023-02-03T22:23:51.179Z,23.73
2023-02-03T22:26:19.759Z,30.20
2023-02-03T22:28:47.969Z,26.73
2023-02-03T22:31:16.765Z,24.30
2023-02-03T22:33:45.104Z,29.20
2023-02-03T22:36:15.833Z,26.83
2023-02-03T22:38:44.263Z,26.67
2023-02-03T22:41:13.095Z,29.43
2023-02-03T22:43:41.726Z,32.87
2023-02-03T22:46:10.284Z,37.90
2023-02-03T22:48:38.519Z,44.60
2023-02-03T22:51:06.751Z,42.17
2023-02-03T22:53:36.287Z,36.63
2023-02-03T22:56:04.473Z,34.17
2023-02-03T22:58:32.681Z,37.33
2023-02-03T23:01:00.895Z,45.23
2023-02-03T23:03:32.431Z,39.13
2023-02-03T23:06:00.844Z,33.37
2023-02-03T23:08:29.016Z,36.73
2023-02-03T23:10:58.683Z,29.60
2023-02-03T23:13:26.939Z,23.20
2023-02-03T23:15:55.295Z,27.20
2023-02-03T23:18:23.529Z,29.43
2023-02-03T23:20:51.715Z,31.83
2023-02-03T23:23:19.916Z,36.77
2023-02-03T23:25:48.244Z,36.70
2023-02-03T23:28:17.884Z,36.77
2023-02-03T23:30:46.179Z,41.27
2023-02-03T23:33:14.484Z,37.20
2023-02-03T23:35:49.246Z,39.50
2023-02-03T23:38:18.025Z,32.80
2023-02-03T23:40:47.705Z,35.90
2023-02-03T23:43:16.229Z,29.03
2023-02-03T23:45:45.764Z,35.73
2023-02-03T23:48:13.972Z,46.27
2023-02-03T23:50:42.180Z,51.80
2023-02-03T23:53:10.705Z,50.03
2023-02-03T23:55:38.913Z,64.73
2023-02-03T23:58:07.078Z,58.30
